Sedgwick Reserve, California Weather observations

Data are for 10 minute period ending at time listed.
 Day   Time   Solar   Ave.   Ave.  Ave.  Vector  Max.   Baro.   Total    
  of    of     Rad.   Air    Rel.  Wind   Wind   Wind  Press.  Precip.   
Year   Day            Temp.  Hum.  Speed  Dir.   Gust                    
2015   (PST)  Kw/m2    F      %     mph   deg.    mph    mb.     in.     
-------------------------------------------------------------------------
 141   17:00   0.33   62.8    50   11.7   280    20.5   971.1    0.00 
 141   17:10   0.20   62.0    52   10.9   283    19.1   971.2    0.00 
 141   17:20   0.10   60.8    55   10.1   283    17.7   971.1    0.00 
 141   17:30   0.11   60.4    57    9.5   282    16.1   971.2    0.00 
 141   17:40   0.17   60.3    59    9.6   298    18.6   971.2    0.00 
 141   17:50   0.13   60.6    59    9.1   301    18.2   971.3    0.00 
 141   18:00   0.09   59.1    63    9.2   302    14.4   971.4    0.00 
 141   18:10   0.08   58.9    63    6.7   301    16.6   971.4    0.00 
 141   18:20   0.04   58.1    65    8.2   308    16.1   971.6    0.00 
 141   18:30   0.03   57.5    67    9.4   300    14.2   971.6    0.00 
 141   18:40   0.03   57.0    68   10.3   308    16.4   971.6    0.00 
 141   18:50   0.02   56.5    70    8.4   306    14.5   971.6    0.00 
 141   19:00   0.00   56.0    71    7.2   314    12.5   971.8    0.00 
 141   19:10   0.00   55.7    72    7.3   304    12.7   971.9    0.00 
 141   19:20   0.00   55.4    72    5.6   311    12.5   971.9    0.00 
 141   19:30   0.00   55.2    72    6.5   316    10.7   972.0    0.00 
 141   19:40   0.00   55.0    72    7.0   306    11.4   972.1    0.00 
 141   19:50   0.00   54.6    74    6.0   317    11.4   972.3    0.00 
 141   20:00   0.00   54.3    75    5.4   312     9.1   972.4    0.00 
 141   20:10   0.00   54.1    76    5.3   306     8.4   972.4    0.00 
 141   20:20   0.00   53.8    79    6.2   302     9.1   972.4    0.00 
 141   20:30   0.00   53.4    81    5.7   305    10.6   972.5    0.00 
 141   20:40   0.00   53.2    82    5.7   315     9.4   972.7    0.00 
 141   20:50   0.00   53.0    83    5.1   309     8.3   972.8    0.00 
 141   21:00   0.00   52.9    84    5.3   304     7.7   973.0    0.00 
 141   21:10   0.00   52.6    84    4.2   294     8.0   973.2    0.00 
 141   21:20   0.00   52.5    84    5.4   310     8.7   973.2    0.00 
 141   21:30   0.00   52.4    84    4.8   318     8.0   973.3    0.00 
 141   21:40   0.00   52.4    83    5.1   312     6.9   973.3    0.00 
 141   21:50   0.00   52.2    84    4.4   294     6.6   973.3    0.00 
 141   22:00   0.00   51.9    85    3.2   288     5.4   973.3    0.00 
 141   22:10   0.00   51.7    86    3.9   292     5.6   973.3    0.00 
 141   22:20   0.00   51.7    86    4.2   284     5.6   973.3    0.00 
 141   22:30   0.00   51.7    86    4.4   293     6.1   973.3    0.00 
 141   22:40   0.00   51.8    86    5.0   304     6.7   973.3    0.00 
 141   22:50   0.00   51.7    85    3.4   298     5.4   973.4    0.00 
 141   23:00   0.00   51.1    86    2.9   287     3.9   973.4    0.00 
 141   23:10   0.00   51.2    86    2.6   293     3.7   973.3    0.00 
 141   23:20   0.00   50.5    86    2.8   290     3.9   973.3    0.00 
 141   23:30   0.00   50.3    87    3.4   278     4.7   973.2    0.00 
 141   23:40   0.00   50.9    87    4.5   288     6.6   973.2    0.00 
 141   23:50   0.00   51.3    85    3.9   289     6.3   973.1    0.00 
 142    0:00   0.00   51.4    84    4.1   289     6.0   973.1    0.00 
 142    0:10   0.00   51.2    84    3.9   274     5.3   973.1    0.00 
 142    0:20   0.00   51.0    83    1.4   271     3.9   973.1    0.00 
 142    0:30   0.00   50.5    84    1.7   266     2.9   973.1    0.00 
 142    0:40   0.00   50.1    85    1.2    47     2.5   973.1    0.00 
 142    0:50   0.00   49.6    86    0.6   115     2.2   973.0    0.00 
 142    1:00   0.00   48.7    86    0.6    25     1.9   973.0    0.00 
 142    1:10   0.00   48.5    88    1.2     6     2.2   973.0    0.00 
 142    1:20   0.00   48.1    88    1.4   250     2.5   972.9    0.00 
 142    1:30   0.00   47.7    89    0.6   280     2.3   972.9    0.00 
 142    1:40   0.00   46.6    90    2.4   360     5.6   972.9    0.00 
 142    1:50   0.00   46.0    90    3.0   353     4.7   973.0    0.00 
 142    2:00   0.00   44.9    91    3.6   358     4.6   973.0    0.00 
 142    2:10   0.00   44.8    92    1.4   326     3.2   973.1    0.00 
 142    2:20   0.00   44.8    92    2.3   360     4.7   973.1    0.00 
 142    2:30   0.00   43.7    92    3.2   349     4.6   973.0    0.00 
 142    2:40   0.00   43.4    93    2.7   325     4.6   973.0    0.00 
 142    2:50   0.00   43.8    93    1.0     5     2.7   973.0    0.00 
 142    3:00   0.00   42.9    93    1.8   327     3.7   973.0    0.00 
 142    3:10   0.00   43.3    93    1.6   301     2.7   973.0    0.00 
 142    3:20   0.00   43.1    93    2.5   358     4.5   973.1    0.00 
 142    3:30   0.00   43.6    93    1.6   280     2.6   973.1    0.00 
 142    3:40   0.00   43.5    93    0.6   304     1.6   973.2    0.00 
 142    3:50   0.00   43.6    93    1.7   269     3.3   973.2    0.00 
 142    4:00   0.00   43.7    93    0.8    72     2.0   973.1    0.00 
 142    4:10   0.00   44.3    93    0.9   325     1.9   973.1    0.00 
 142    4:20   0.00   44.4    92    0.7   269     2.5   973.1    0.00 
 142    4:30   0.00   44.5    92    0.9    56     2.3   973.1    0.00 
 142    4:40   0.00   44.6    92    1.1    92     2.6   973.1    0.00 
 142    4:50   0.00   44.8    92    1.8   156     2.9   973.1    0.00 
 142    5:00   0.00   45.1    92    2.2   186     4.2   973.0    0.00 
 142    5:10   0.01   44.7    92    1.2    52     3.2   973.0    0.00 
 142    5:20   0.01   44.7    92    1.2   121     2.3   973.2    0.00 
 142    5:30   0.01   45.2    92    1.6    93     3.6   973.2    0.00 
 142    5:40   0.03   46.0    92    1.1   149     3.4   973.3    0.00 
 142    5:50   0.03   47.1    92    1.0    25     2.3   973.3    0.00 
 142    6:00   0.03   47.9    92    1.9    30     2.3   973.3    0.00 
 142    6:10   0.04   48.7    92    0.3   172     1.2   973.3    0.00 
 142    6:20   0.06   49.2    90    0.0   229     0.1   973.3    0.00 
 142    6:30   0.07   50.1    88    0.4   166     1.8   973.4    0.00 
 142    6:40   0.08   50.8    87    1.5   252     4.4   973.4    0.00 
 142    6:50   0.15   53.6    82    4.1   281     7.0   973.5    0.00 
 142    7:00   0.22   55.8    76    6.6   291    11.4   973.4    0.00 
 142    7:10   0.20   56.2    74    7.2   296    12.9   973.3    0.00 
 142    7:20   0.37   57.2    71    8.4   312    16.3   973.3    0.00 
 142    7:30   0.28   57.2    71    9.7   310    15.6   973.3    0.00 
 142    7:40   0.15   56.9    70    8.7   296    13.4   973.4    0.00 
 142    7:50   0.21   56.7    69    8.4   290    13.2   973.6    0.00 
 142    8:00   0.44   58.3    65    6.6   321    11.1   973.6    0.00 
 142    8:10   0.32   59.4    62    5.3   338     9.7   973.6    0.00 
 142    8:20   0.24   59.5    62    3.5   325     6.2   973.6    0.00 
 142    8:30   0.24   59.9    59    2.6   328     6.3   973.6    0.00 
 142    8:40   0.28   60.5    57    5.6   304    11.6   973.7    0.00 
 142    8:50   0.62   60.3    58    9.2   271    15.7   973.7    0.00 
 142    9:00   0.80   61.4    56    8.8   298    14.7   973.8    0.00 
 142    9:10   0.65   61.7    55    9.4   275    15.5   973.8    0.00 
 142    9:20   0.30   60.7    57    8.5   273    14.6   973.8    0.00 
 142    9:30   0.30   60.8    56    7.5   274    12.0   973.8    0.00 
 142    9:40   0.41   61.7    54    7.2   278    17.0   973.8    0.00 
 142    9:50   0.74   63.4    52    7.9   296    14.6   973.8    0.00 
 142   10:00   0.78   63.6    51   10.3   278    15.8   973.8    0.00 
 142   10:10   0.71   64.4    50    7.5   301    15.3   974.0    0.00 
 142   10:20   0.67   64.6    50    8.2   280    14.5   974.1    0.00 
 142   10:30   0.74   63.9    50    9.5   268    16.1   974.0    0.00 
 142   10:40   0.69   64.3    50    8.0   280    13.4   974.0    0.00 
 142   10:50   0.87   66.1    47    9.3   282    18.3   974.0    0.00 
 142   11:00   0.91   65.4    48    9.6   252    18.2   973.9    0.00 
 142   11:10   0.94   66.3    46   10.1   282    20.0   973.8    0.00 
 142   11:20   0.84   66.7    46   10.2   272    17.9   973.7    0.00 
 142   11:30   0.83   66.6    46    9.4   290    17.0   973.7    0.00 
 142   11:40   0.97   67.5    45   10.3   274    18.5   973.5    0.00 
 142   11:50   0.96   68.2    45   10.1   273    18.2   973.4    0.00 
 142   12:00   0.94   67.4    45   12.1   261    21.5   973.3    0.00 
 142   12:10   0.95   68.8    44   11.2   268    18.7   973.3    0.00 
 142   12:20   0.94   67.6    45   12.5   263    20.5   973.2    0.00 
 142   12:30   0.93   68.6    43    9.8   263    18.6   973.2    0.00 
 142   12:40   0.93   69.2    42   12.0   278    19.9   973.2    0.00 
 142   12:50   0.83   69.8    42   11.0   283    22.6   973.2    0.00 
 142   13:00   0.74   68.6    44   11.1   274    22.1   973.2    0.00 
 142   13:10   0.92   70.1    42   10.9   281    18.3   973.2    0.00 
 142   13:20   0.71   70.0    43   10.2   285    18.3   973.2    0.00 
 142   13:30   0.92   69.1    44   12.1   270    18.1   973.2    0.00 
 142   13:40   0.88   69.9    43   10.3   279    16.2   973.2    0.00 
 142   13:50   0.86   69.0    45   15.1   257    23.0   973.1    0.00 
 142   14:00   0.83   69.0    44   12.1   273    20.7   973.2    0.00 
 142   14:10   0.81   69.0    45   12.2   282    19.3   973.1    0.00 
 142   14:20   0.79   69.1    45   11.6   278    20.9   973.1    0.00 
 142   14:30   0.77   68.6    46   12.9   266    21.4   973.0    0.00 
 142   14:40   0.75   69.4    44   13.1   286    22.3   972.9    0.00 
 142   14:50   0.73   69.4    45   13.1   291    22.6   972.9    0.00 
 142   15:00   0.69   68.6    47   14.1   296    22.4   973.0    0.00 
 142   15:10   0.68   67.8    49   15.9   300    24.3   973.0    0.00 
 142   15:20   0.65   68.1    49   12.1   307    21.3   973.1    0.00 
 142   15:30   0.62   67.8    50   12.2   293    21.1   973.2    0.00 
 142   15:40   0.55   66.9    52   15.4   307    24.1   973.2    0.00 
 142   15:50   0.56   67.2    51    9.5   312    19.4   973.2    0.00 
 142   16:00   0.53   67.2    50   13.3   288    23.2   973.3    0.00 
 142   16:10   0.51   66.0    51   13.1   291    21.3   973.3    0.00 
 142   16:20   0.46   65.6    52   11.4   282    19.1   973.4    0.00 
 142   16:30   0.44   65.7    51    8.7   288    15.6   973.6    0.00 
 142   16:40   0.40   65.3    52   10.2   296    18.6   973.6    0.00 
 142   16:50   0.36   65.2    51    8.5   312    16.7   973.6    0.00 

Return to Sedgwick Reserve graphs page.


Western Regional Climate Center,wrcc@dri.edu